Terminal Aerodrome Forecast
Issued by NWS

Home | Current Version | Previous Version | Text Only | Print | Product List | Glossary On
Versions: 1 2 3 4 5 6 7 8 9 10 11 12 13 14 15 16 17 18 19 20 21 22 23 24 25 26 27 28 29 30 31 32
000
FTAK31 PAFA 242357 RRA
TAFAUN
TAF
PAUN 242357Z 2500/2524 08007KT P6SM SCT020 BKN050
     FM250300 35006KT P6SM -SHRA OVC020
     FM251200 VRB04KT P6SM SCT025 BKN050
     FM252100 20010KT P6SM FEW020 BKN080 BKN180=

USA.gov is the U.S. government's official web portal to all federal, state and local government web resources and services.